createdAt,value
2019-02-25T00:00:56.132Z,15.23
2019-02-25T00:03:25.458Z,14.40
2019-02-25T00:05:52.884Z,11.90
2019-02-25T00:08:20.118Z,11.60
2019-02-25T00:10:47.562Z,16.95
2019-02-25T00:13:14.801Z,10.43
2019-02-25T00:15:42.218Z,13.30
2019-02-25T00:18:09.585Z,12.33
2019-02-25T00:20:36.999Z,13.93
2019-02-25T00:23:04.387Z,12.80
2019-02-25T00:25:31.761Z,13.50
2019-02-25T00:27:59.175Z,12.07
2019-02-25T00:30:26.606Z,10.48
2019-02-25T00:32:54.002Z,9.95
2019-02-25T00:35:21.345Z,11.78
2019-02-25T00:37:49.795Z,10.10
2019-02-25T00:40:17.207Z,10.13
2019-02-25T00:42:44.607Z,16.17
2019-02-25T00:45:11.967Z,9.20
2019-02-25T00:47:39.418Z,10.93
2019-02-25T00:50:08.652Z,8.68
2019-02-25T00:52:36.050Z,11.48
2019-02-25T00:55:04.178Z,8.70
2019-02-25T00:57:31.515Z,10.40
2019-02-25T00:59:58.800Z,9.90
2019-02-25T01:02:26.168Z,16.12
2019-02-25T01:04:53.563Z,9.00
2019-02-25T01:07:20.913Z,9.45
2019-02-25T01:09:48.523Z,10.48
2019-02-25T01:12:15.959Z,10.48
2019-02-25T01:14:43.252Z,9.78
2019-02-25T01:17:11.695Z,8.00
2019-02-25T01:19:39.244Z,8.55
2019-02-25T01:22:06.526Z,9.00
2019-02-25T01:24:33.935Z,10.43
2019-02-25T01:27:01.354Z,11.38
2019-02-25T01:29:28.793Z,10.28
2019-02-25T01:31:56.297Z,17.85
2019-02-25T01:34:23.739Z,10.98
2019-02-25T01:36:51.101Z,10.45
2019-02-25T01:39:18.541Z,10.75
2019-02-25T01:41:45.967Z,9.60
2019-02-25T01:44:13.338Z,10.80
2019-02-25T01:46:40.853Z,9.68
2019-02-25T01:49:08.298Z,12.03
2019-02-25T01:51:35.698Z,9.40
2019-02-25T01:54:03.086Z,12.00
2019-02-25T01:56:30.475Z,10.38
2019-02-25T01:58:57.985Z,12.35
2019-02-25T02:01:25.351Z,11.88
2019-02-25T02:03:52.767Z,12.20
2019-02-25T02:06:20.133Z,14.73
2019-02-25T02:08:47.595Z,10.95
2019-02-25T02:11:14.959Z,12.20
2019-02-25T02:13:42.186Z,12.93
2019-02-25T02:16:09.565Z,13.65
2019-02-25T02:18:36.963Z,11.85
2019-02-25T02:21:04.433Z,12.88
2019-02-25T02:23:31.869Z,11.57
2019-02-25T02:25:59.365Z,12.68
2019-02-25T02:28:26.852Z,9.38
2019-02-25T02:30:54.243Z,12.93
2019-02-25T02:33:21.627Z,13.18
2019-02-25T02:35:49.054Z,10.90
2019-02-25T02:38:16.499Z,10.68
2019-02-25T02:40:44.035Z,10.63
2019-02-25T02:43:11.508Z,11.20
2019-02-25T02:45:46.225Z,15.32
2019-02-25T02:48:38.796Z,9.98
2019-02-25T02:51:06.203Z,9.30
2019-02-25T02:53:33.618Z,11.78
2019-02-25T02:56:00.970Z,11.80
2019-02-25T02:58:28.465Z,11.50
2019-02-25T03:00:56.891Z,10.28
2019-02-25T03:03:24.182Z,10.98
2019-02-25T03:05:51.498Z,11.75
2019-02-25T03:08:18.899Z,12.15
2019-02-25T03:10:46.169Z,10.15
2019-02-25T03:13:13.579Z,12.40
2019-02-25T03:15:41.039Z,12.20
2019-02-25T03:18:08.384Z,13.90
2019-02-25T03:20:35.807Z,11.70
2019-02-25T03:23:03.193Z,11.48
2019-02-25T03:25:30.586Z,12.73
2019-02-25T03:27:57.977Z,13.70
2019-02-25T03:30:25.350Z,12.95
2019-02-25T03:32:52.872Z,10.05
2019-02-25T03:35:20.427Z,11.00
2019-02-25T03:37:47.818Z,15.88
2019-02-25T03:40:16.829Z,14.07
2019-02-25T03:42:44.283Z,13.25
2019-02-25T03:45:13.128Z,12.75
2019-02-25T03:47:40.547Z,17.77
2019-02-25T03:50:07.892Z,14.23
2019-02-25T03:52:35.303Z,13.88
2019-02-25T03:55:03.373Z,13.90
2019-02-25T03:57:30.769Z,13.98
2019-02-25T03:59:58.085Z,13.32
2019-02-25T04:02:25.467Z,13.85
2019-02-25T04:04:52.832Z,11.45
2019-02-25T04:07:20.178Z,13.38
2019-02-25T04:09:47.510Z,12.68
2019-02-25T04:12:14.999Z,14.60
2019-02-25T04:14:42.422Z,14.60
2019-02-25T04:17:09.855Z,14.63
2019-02-25T04:19:37.233Z,12.85
2019-02-25T04:22:04.692Z,12.88
2019-02-25T04:24:32.074Z,11.95
2019-02-25T04:26:59.518Z,13.40
2019-02-25T04:29:26.783Z,14.60
2019-02-25T04:31:54.200Z,14.95
2019-02-25T04:34:21.569Z,13.13
2019-02-25T04:36:48.922Z,10.85
2019-02-25T04:39:16.362Z,12.07
2019-02-25T04:41:43.801Z,13.60
2019-02-25T04:44:11.179Z,11.22
2019-02-25T04:46:38.592Z,15.45
2019-02-25T04:49:06.021Z,12.15
2019-02-25T04:51:33.347Z,12.13
2019-02-25T04:54:00.763Z,13.15
2019-02-25T04:56:28.129Z,12.00
2019-02-25T04:58:55.584Z,15.15
2019-02-25T05:01:22.875Z,14.15
2019-02-25T05:03:50.216Z,14.87
2019-02-25T05:06:17.629Z,11.33
2019-02-25T05:08:44.961Z,12.20
2019-02-25T05:11:12.381Z,12.60
2019-02-25T05:13:39.829Z,14.07
2019-02-25T05:16:07.178Z,10.70
2019-02-25T05:18:34.583Z,12.82
2019-02-25T05:21:01.966Z,10.85
2019-02-25T05:23:29.244Z,15.30
2019-02-25T05:25:56.645Z,13.45
2019-02-25T05:28:24.058Z,13.62
2019-02-25T05:30:51.553Z,15.48
2019-02-25T05:33:18.947Z,15.95
2019-02-25T05:35:46.479Z,14.95
2019-02-25T05:38:13.852Z,14.65
2019-02-25T05:40:41.243Z,12.78
2019-02-25T05:43:08.755Z,16.57
2019-02-25T05:45:36.220Z,14.23
2019-02-25T05:48:03.547Z,14.53
2019-02-25T05:50:30.875Z,15.25
2019-02-25T05:52:58.252Z,14.70
2019-02-25T05:55:25.615Z,13.00
2019-02-25T05:57:52.999Z,16.32
2019-02-25T06:00:22.517Z,12.93
2019-02-25T06:02:49.932Z,13.60
2019-02-25T06:05:17.369Z,17.02
2019-02-25T06:07:44.699Z,13.18
2019-02-25T06:10:12.232Z,14.55
2019-02-25T06:12:40.683Z,13.90
2019-02-25T06:15:08.911Z,12.60
2019-02-25T06:17:36.293Z,14.60
2019-02-25T06:20:04.641Z,15.23
2019-02-25T06:22:31.925Z,15.40
2019-02-25T06:24:59.306Z,15.03
2019-02-25T06:27:30.631Z,13.25
2019-02-25T06:29:55.787Z,15.43
2019-02-25T06:32:23.142Z,15.20
2019-02-25T06:34:50.502Z,11.78
2019-02-25T06:37:17.806Z,17.25
2019-02-25T06:39:45.210Z,12.43
2019-02-25T06:42:12.534Z,14.53
2019-02-25T06:44:40.006Z,16.45
2019-02-25T06:47:07.325Z,15.30
2019-02-25T06:49:34.634Z,13.22
2019-02-25T06:52:01.985Z,16.07
2019-02-25T06:54:29.393Z,16.15
2019-02-25T06:56:56.726Z,17.07
2019-02-25T06:59:25.367Z,14.90
2019-02-25T07:01:52.817Z,19.50
2019-02-25T07:04:31.129Z,16.07
2019-02-25T07:07:17.999Z,16.75
2019-02-25T07:09:59.754Z,15.70
2019-02-25T07:12:38.512Z,15.38
2019-02-25T07:15:25.787Z,21.77
2019-02-25T07:18:21.808Z,15.18
2019-02-25T07:20:59.090Z,17.15
2019-02-25T07:23:44.636Z,17.12
2019-02-25T07:26:22.468Z,13.22
2019-02-25T07:29:15.129Z,14.00
2019-02-25T07:32:09.193Z,13.78
2019-02-25T07:35:14.086Z,15.65
2019-02-25T07:37:59.881Z,16.02
2019-02-25T07:40:41.130Z,13.80
2019-02-25T07:43:26.235Z,12.13
2019-02-25T07:46:03.474Z,14.38
2019-02-25T07:48:42.526Z,14.75
2019-02-25T07:51:39.475Z,13.28
2019-02-25T07:54:13.068Z,14.20
2019-02-25T07:56:57.556Z,12.07
2019-02-25T07:59:42.633Z,15.80
2019-02-25T08:02:29.679Z,13.28
2019-02-25T08:05:03.650Z,11.83
2019-02-25T08:07:49.679Z,12.78
2019-02-25T08:10:32.742Z,13.58
2019-02-25T08:13:20.167Z,12.73
2019-02-25T08:16:03.174Z,12.13
2019-02-25T08:18:43.380Z,15.30
2019-02-25T08:21:23.219Z,14.40
2019-02-25T08:24:11.049Z,14.73
2019-02-25T08:26:49.642Z,14.98
2019-02-25T08:33:06.108Z,14.43
2019-02-25T08:36:47.078Z,13.72
2019-02-25T08:39:21.722Z,13.28
2019-02-25T08:41:57.818Z,11.50
2019-02-25T08:44:33.763Z,12.00
2019-02-25T08:47:10.172Z,12.73
2019-02-25T08:49:46.373Z,14.65
2019-02-25T08:52:14.041Z,17.37
2019-02-25T08:54:41.423Z,12.58
2019-02-25T08:57:08.861Z,10.25
2019-02-25T08:59:36.352Z,13.38
2019-02-25T09:02:03.924Z,12.33
2019-02-25T09:04:32.513Z,14.63
2019-02-25T09:06:59.930Z,13.13
2019-02-25T09:09:27.411Z,9.95
2019-02-25T09:11:54.802Z,12.68
2019-02-25T09:14:22.114Z,10.05
2019-02-25T09:16:50.618Z,9.68
2019-02-25T09:19:18.041Z,10.08
2019-02-25T09:21:45.531Z,12.80
2019-02-25T09:24:13.002Z,9.13
2019-02-25T09:26:40.474Z,12.13
2019-02-25T09:29:09.234Z,10.32
2019-02-25T09:31:36.648Z,11.00
2019-02-25T09:34:04.115Z,10.28
2019-02-25T09:36:31.576Z,8.70
2019-02-25T09:38:58.954Z,9.33
2019-02-25T09:41:29.821Z,9.68
2019-02-25T09:43:55.611Z,12.28
2019-02-25T09:46:22.983Z,9.58
2019-02-25T09:48:50.423Z,9.20
2019-02-25T09:51:17.681Z,9.10
2019-02-25T09:53:45.087Z,10.78
2019-02-25T09:56:12.612Z,8.68
2019-02-25T09:58:40.001Z,7.50
2019-02-25T10:01:08.118Z,8.63
2019-02-25T10:03:35.551Z,9.05
2019-02-25T10:06:02.930Z,8.43
2019-02-25T10:08:30.231Z,11.00
2019-02-25T10:10:57.632Z,8.80
2019-02-25T10:13:24.986Z,8.50
2019-02-25T10:15:52.354Z,7.28
2019-02-25T10:18:19.639Z,8.63
2019-02-25T10:20:48.142Z,7.00
2019-02-25T10:23:15.562Z,9.90
2019-02-25T10:25:43.146Z,8.10
2019-02-25T10:28:10.555Z,8.85
2019-02-25T10:30:37.968Z,8.83
2019-02-25T10:33:05.470Z,7.75
2019-02-25T10:35:32.736Z,8.03
2019-02-25T10:38:01.133Z,8.10
2019-02-25T10:40:29.455Z,9.05
2019-02-25T10:42:56.810Z,9.35
2019-02-25T10:45:24.161Z,6.60
2019-02-25T10:47:54.398Z,7.70
2019-02-25T10:50:22.111Z,10.58
2019-02-25T10:52:49.681Z,8.58
2019-02-25T10:55:30.158Z,7.83
2019-02-25T10:57:59.777Z,6.35
2019-02-25T11:00:26.986Z,7.22
2019-02-25T11:02:56.436Z,6.87
2019-02-25T11:05:27.283Z,8.45
2019-02-25T11:07:53.401Z,10.48
2019-02-25T11:10:29.121Z,8.40
2019-02-25T11:12:57.709Z,9.73
2019-02-25T11:15:26.322Z,10.43
2019-02-25T11:17:55.915Z,7.72
2019-02-25T11:20:23.119Z,8.00
2019-02-25T11:22:50.865Z,8.25
2019-02-25T11:25:19.396Z,7.78
2019-02-25T11:27:47.761Z,11.15
2019-02-25T11:30:16.574Z,17.05
2019-02-25T11:32:44.698Z,8.15
2019-02-25T11:35:13.043Z,7.92
2019-02-25T11:37:40.580Z,10.78
2019-02-25T11:40:08.994Z,9.65
2019-02-25T11:42:36.380Z,7.92
2019-02-25T11:45:04.995Z,8.25
2019-02-25T11:47:32.544Z,8.35
2019-02-25T11:49:59.973Z,6.85
2019-02-25T11:52:27.414Z,7.75
2019-02-25T11:54:54.836Z,8.13
2019-02-25T11:57:22.185Z,8.60
2019-02-25T11:59:49.917Z,6.95
2019-02-25T12:02:25.163Z,7.83
2019-02-25T12:04:48.423Z,7.72
2019-02-25T12:07:16.627Z,8.83
2019-02-25T12:09:44.055Z,8.80
2019-02-25T12:12:11.747Z,8.30
2019-02-25T12:14:39.143Z,6.33
2019-02-25T12:17:06.596Z,7.85
2019-02-25T12:19:33.987Z,7.72
2019-02-25T12:22:01.450Z,9.38
2019-02-25T12:24:28.949Z,7.87
2019-02-25T12:26:56.306Z,9.38
2019-02-25T12:29:23.774Z,8.48
2019-02-25T12:31:51.151Z,7.92
2019-02-25T12:34:18.685Z,6.70
2019-02-25T12:36:46.035Z,8.75
2019-02-25T12:39:13.475Z,9.18
2019-02-25T12:41:40.858Z,7.00
2019-02-25T12:44:08.235Z,7.67
2019-02-25T12:46:35.675Z,6.05
2019-02-25T12:49:03.073Z,8.63
2019-02-25T12:51:31.706Z,8.18
2019-02-25T12:53:59.575Z,6.37
2019-02-25T12:56:27.307Z,10.20
2019-02-25T12:58:55.327Z,5.87
2019-02-25T13:01:22.921Z,12.00
2019-02-25T13:03:50.473Z,6.92
2019-02-25T13:06:18.034Z,7.20
2019-02-25T13:08:45.638Z,11.80
2019-02-25T13:11:13.350Z,7.55
2019-02-25T13:13:40.931Z,7.85
2019-02-25T13:16:08.699Z,7.92
2019-02-25T13:18:36.188Z,8.73
2019-02-25T13:21:03.566Z,6.33
2019-02-25T13:23:31.078Z,9.93
2019-02-25T13:26:07.252Z,8.95
2019-02-25T13:28:28.591Z,7.17
2019-02-25T13:30:58.845Z,7.90
2019-02-25T13:33:26.931Z,7.22
2019-02-25T13:35:54.692Z,6.83
2019-02-25T13:38:22.687Z,6.30
2019-02-25T13:40:51.231Z,9.33
2019-02-25T13:43:18.561Z,6.72
2019-02-25T13:45:46.032Z,6.08
2019-02-25T13:48:14.700Z,6.15
2019-02-25T13:50:42.380Z,7.97
2019-02-25T13:53:09.734Z,7.83
2019-02-25T13:55:37.359Z,7.97
2019-02-25T13:58:05.231Z,5.60
2019-02-25T14:00:32.704Z,6.42
2019-02-25T14:03:00.315Z,5.67
2019-02-25T14:05:27.749Z,9.38
2019-02-25T14:07:55.110Z,6.20
2019-02-25T14:10:22.645Z,8.43
2019-02-25T14:12:50.114Z,6.62
2019-02-25T14:15:17.934Z,5.83
2019-02-25T14:17:45.421Z,8.80
2019-02-25T14:20:15.151Z,6.00
2019-02-25T14:22:44.611Z,6.47
2019-02-25T14:25:12.711Z,6.20
2019-02-25T14:27:40.250Z,7.72
2019-02-25T14:30:11.813Z,8.48
2019-02-25T14:32:39.384Z,9.68
2019-02-25T14:35:07.858Z,5.92
2019-02-25T14:37:35.629Z,7.03
2019-02-25T14:40:05.627Z,6.85
2019-02-25T14:42:33.705Z,8.40
2019-02-25T14:45:04.594Z,6.72
2019-02-25T14:47:36.824Z,6.78
2019-02-25T14:50:01.379Z,19.12
2019-02-25T14:52:29.289Z,7.90
2019-02-25T14:54:58.231Z,7.12
2019-02-25T14:57:26.886Z,6.60
2019-02-25T14:59:54.851Z,7.10
2019-02-25T15:02:22.287Z,6.12
2019-02-25T15:04:49.725Z,6.90
2019-02-25T15:19:56.740Z,5.78
2019-02-25T15:22:27.914Z,14.68
2019-02-25T15:24:54.623Z,22.95
2019-02-25T18:03:08.262Z,8.38
